Details From LPPT - Lisboa
To SBSV - Salvador Bahia Deputado Luis Eduardo M
Flight Number -
Tags Generated
Created
Modified
Stats Distance 3,510 nm / 6,501 km
Max Altitude 0 ft / 0 m
Waypoints 3
Social Downloads 5
Likes 0
Share VATSIM

Download

Looking for another format? Having issues loading an existing format? Contact us
Advertisement - Login to hide

Notes

Generated

Route

LPPT SVD56 SBSV

ID Type Via Altitude Latitude Longitude Leg Dist Tot Dist Heading (true) Name
O LPPT APT - 0 ft / 0 m 38.78624˚ -9.13721˚ - 0 nm - -
SVD56 FIX - 0 ft / 0 m -12.76578˚ -38.22882˚ 3499 nm 3499 nm 214° / 206° -
O SBSV APT - 0 ft / 0 m -12.90821˚ -38.34316˚ 10 nm 3510 nm 218° / 218° -

Altitude Profile

Advertisement - Login to hide

Weather


0- 5 10 15 20 25 30 35+ Temperature / ° C

Clouds and Precipitation
Forecast for 2017-12-16 00:00 UTC. Updated 42 minutes ago

Ground ~20,000 ft ~40,000 ft Winds

LPPT

Details ICAO LPPT (LIS)
Name Lisboa
Region Portugal
Timezone Europe/Lisbon (UTC+0.0)
Stats Elevation 374 ft / 114 m (AMSL)
Location 38.778559° -9.135146°
Runways 2
Magnetic Variation 2.364° W

METAR

LPPT 152200Z 34009KT 310V010 CAVOK 10/06 Q1019

Decode

TAF

TAF LPPT 151700Z 1518/1624 36013KT 9999 FEW030 BECMG 1518/1521 36008KT CAVOK BECMG 1609/1612 03008KT BECMG 1616/1619 34008KT

Decode

Departure Runways

ID Width Length Bearing (true) Bearing (mag) Surface Threshold Offset Overrun Length
03 148 ft / 45 m 12,518 ft / 3,815 m 22.70° 25.06° Asphalt 296 ft / 90 m 0 ft / 0 m
17 148 ft / 45 m 7,922 ft / 2,415 m 168.38° 170.74° Asphalt 0 ft / 0 m 0 ft / 0 m
21 148 ft / 45 m 12,518 ft / 3,815 m 202.72° 205.08° Asphalt 1,969 ft / 600 m 0 ft / 0 m
35 148 ft / 45 m 7,922 ft / 2,415 m 348.38° 350.74° Asphalt 492 ft / 150 m 0 ft / 0 m

SBSV

Details ICAO SBSV (SSA)
Name Salvador Bahia Deputado Luis Eduardo M
Region Brazil
Timezone America/Bahia (UTC-3.0)
Stats Elevation 64 ft / 20 m (AMSL)
Location -12.910994° -38.331043°
Runways 2
Magnetic Variation 23.437° W

METAR

SBSV 152200Z 10008KT 9999 FEW020 SCT070 26/21 Q1014

Decode

TAF

TAF SBSV 151500Z 1518/1618 07009KT 9999 SCT020 TN25/1607Z TX29/1615Z RMK PEA

Decode

Destination Runways

ID Width Length Bearing (true) Bearing (mag) Surface Threshold Offset Overrun Length
10 148 ft / 45 m 9,845 ft / 3,001 m 78.32° 101.76° Asphalt 0 ft / 0 m 205 ft / 62 m
17 148 ft / 45 m 5,014 ft / 1,528 m 144.04° 167.48° Asphalt 0 ft / 0 m 0 ft / 0 m
28 148 ft / 45 m 9,845 ft / 3,001 m 258.31° 281.75° Asphalt 0 ft / 0 m 205 ft / 62 m
35 148 ft / 45 m 5,014 ft / 1,528 m 324.04° 347.48° Asphalt 0 ft / 0 m 0 ft / 0 m

Approach Navaids

Runway Type Ident Frequency Range Bearing (true) Bearing (mag) Slope Elevation
10 Localiser ISV 109.30 MHz 18 nm / 33 km 78.41° 101.84° - 29 ft / 9 m (AMSL)
10 Glidescope ISV 109.30 MHz 10 nm / 19 km 78.32° 101.75° 2.88° 29 ft / 9 m (AMSL)

Popular Alternatives